Time;durP1;ratioP1;P1;durP2;ratioP2;P2;SDS_P1;SDS_P2;PMS_P1;PMS_P2;Temp;Humidity;BMP_temperature;BMP_pressure;BME280_temperature;BME280_humidity;BME280_pressure;Samples;Min_cycle;Max_cycle;Signal;HPM_P1;HPM_P2
2021/12/14 00:01:42;;;;;;;5.63;5.00;;;;;;;1.64;86.25;100199.19;1687661;83;20882;-56
2021/12/14 00:04:13;;;;;;;6.43;4.00;;;;;;;1.64;86.12;100204.50;1683688;83;21963;-57
2021/12/14 00:06:41;;;;;;;5.37;4.40;;;;;;;1.60;86.18;100212.50;1688259;83;21365;-56
2021/12/14 00:09:09;;;;;;;4.67;3.43;;;;;;;1.59;86.21;100210.73;1663753;83;22060;-56
2021/12/14 00:15:01;;;;;;;5.57;3.50;;;;;;;1.59;86.24;100209.41;1685650;83;20874;-56
2021/12/14 00:16:42;;;;;;;3.13;2.80;;;;;;;1.60;86.23;100210.73;1666010;83;20963;-56
2021/12/14 00:19:10;;;;;;;3.70;2.80;;;;;;;1.59;86.20;100210.73;1668745;84;21389;-56
2021/12/14 00:21:37;;;;;;;4.87;2.87;;;;;;;1.62;86.28;100216.88;1669922;83;21970;-57
2021/12/14 00:24:09;;;;;;;4.33;3.07;;;;;;;1.66;86.25;100220.42;1665324;84;21331;-56
2021/12/14 00:26:45;;;;;;;4.63;3.23;;;;;;;1.67;86.25;100218.20;1669048;83;21453;-56
2021/12/14 00:29:16;;;;;;;7.07;3.63;;;;;;;1.69;86.32;100218.64;1679525;83;20922;-56
2021/12/14 00:31:44;;;;;;;6.00;3.77;;;;;;;1.70;86.20;100216.87;1678202;83;20990;-57
2021/12/14 00:34:10;;;;;;;7.53;4.87;;;;;;;1.69;86.22;100217.77;1678908;83;21119;-57
2021/12/14 00:36:38;;;;;;;6.13;4.37;;;;;;;1.70;86.21;100214.22;1676002;83;21132;-57
2021/12/14 00:39:08;;;;;;;8.07;4.47;;;;;;;1.69;86.27;100208.47;1670404;83;21132;-56
2021/12/14 00:41:37;;;;;;;6.70;3.87;;;;;;;1.69;86.23;100212.45;1672015;83;21101;-56
2021/12/14 00:44:05;;;;;;;6.40;4.20;;;;;;;1.69;86.20;100205.82;1670198;83;21709;-57
2021/12/14 00:46:33;;;;;;;5.93;2.93;;;;;;;1.69;86.24;100205.38;1665732;83;21159;-57
2021/12/14 00:48:59;;;;;;;7.47;3.30;;;;;;;1.70;86.19;100203.61;1670576;83;21054;-57
2021/12/14 00:51:29;;;;;;;3.47;2.80;;;;;;;1.70;86.25;100201.80;1672837;83;21464;-57
2021/12/14 00:53:59;;;;;;;4.90;3.07;;;;;;;1.71;86.21;100204.90;1674414;83;21554;-56
2021/12/14 00:56:26;;;;;;;6.23;4.13;;;;;;;1.73;86.13;100209.77;1706835;81;21103;-57
2021/12/14 00:58:52;;;;;;;22.50;13.40;;;;;;;1.70;86.02;100207.59;1713081;81;21173;-57
2021/12/14 01:01:24;;;;;;;18.80;9.10;;;;;;;1.65;85.88;100202.73;1708331;81;21125;-57
2021/12/14 01:03:55;;;;;;;21.00;14.33;;;;;;;1.56;85.87;100210.29;1705114;81;21384;-57
2021/12/14 01:06:24;;;;;;;11.80;7.10;;;;;;;1.50;85.98;100207.67;1712077;81;21953;-57
2021/12/14 01:08:51;;;;;;;8.57;4.70;;;;;;;1.48;86.03;100214.75;1712681;81;20887;-56
2021/12/14 01:11:34;;;;;;;3.87;3.47;;;;;;;1.48;86.14;100214.75;1677065;83;21112;-56
2021/12/14 01:14:11;;;;;;;5.33;3.37;;;;;;;1.51;86.29;100217.41;1676130;83;22216;-59
2021/12/14 01:16:54;;;;;;;4.40;3.07;;;;;;;1.52;86.30;100215.19;1706393;81;21128;-58
2021/12/14 01:19:24;;;;;;;6.70;4.57;;;;;;;1.56;86.33;100216.04;1675274;83;21685;-59
2021/12/14 01:27:18;;;;;;;6.37;4.40;;;;;;;1.57;86.32;100217.81;1708404;81;21006;-59
2021/12/14 01:29:47;;;;;;;6.67;4.57;;;;;;;1.53;86.21;100226.25;1704302;81;21053;-58
2021/12/14 01:32:14;;;;;;;5.30;4.13;;;;;;;1.49;86.30;100218.73;1672717;83;21602;-59
2021/12/14 01:34:40;;;;;;;6.93;3.60;;;;;;;1.49;86.35;100222.70;1675488;83;21080;-58
2021/12/14 01:37:13;;;;;;;4.73;3.57;;;;;;;1.52;86.41;100228.45;1671959;83;21143;-60
2021/12/14 01:40:03;;;;;;;6.47;3.27;;;;;;;1.53;86.47;100218.73;1669197;83;21339;-59
2021/12/14 01:42:23;;;;;;;7.50;4.47;;;;;;;1.56;86.54;100222.23;1689112;82;20864;-58
2021/12/14 01:44:57;;;;;;;5.10;3.67;;;;;;;1.61;86.53;100224.88;1698484;82;21348;-58
2021/12/14 01:47:45;;;;;;;5.10;4.23;;;;;;;1.62;86.40;100225.28;1696626;82;21360;-59
2021/12/14 01:50:36;;;;;;;6.00;4.13;;;;;;;1.62;86.31;100230.59;1687683;82;21163;-59
2021/12/14 01:53:04;;;;;;;6.00;5.33;;;;;;;1.58;86.36;100235.49;1685818;82;21052;-59
2021/12/14 01:55:35;;;;;;;6.33;4.87;;;;;;;1.56;86.45;100237.27;1697588;82;21496;-59
2021/12/14 01:58:04;;;;;;;6.60;4.10;;;;;;;1.54;86.42;100238.59;1701174;82;21385;-58
2021/12/14 02:00:41;;;;;;;6.50;3.63;;;;;;;1.50;86.39;100232.44;1669946;83;20962;-59
2021/12/14 02:03:09;;;;;;;4.57;3.53;;;;;;;1.49;86.52;100235.09;1700148;81;22389;-59
2021/12/14 02:05:40;;;;;;;6.17;3.30;;;;;;;1.52;86.65;100232.44;1666043;83;21148;-58
2021/12/14 02:08:23;;;;;;;5.90;3.13;;;;;;;1.51;86.51;100232.88;1698502;82;21082;-59
2021/12/14 02:10:50;;;;;;;8.80;3.47;;;;;;;1.50;86.61;100230.23;1698546;82;21125;-59
2021/12/14 02:13:26;;;;;;;5.80;3.17;;;;;;;1.56;86.82;100225.33;1705277;82;20923;-58
2021/12/14 02:15:54;;;;;;;7.43;3.60;;;;;;;1.62;86.81;100221.31;1693858;82;22066;-58
2021/12/14 02:18:23;;;;;;;8.53;4.67;;;;;;;1.68;86.81;100226.61;1670906;83;21533;-59
2021/12/14 02:21:05;;;;;;;9.07;4.47;;;;;;;1.68;86.60;100223.52;1698107;82;20909;-59
2021/12/14 02:23:33;;;;;;;9.70;5.83;;;;;;;1.69;86.54;100226.61;1703494;82;20904;-59
2021/12/14 02:26:03;;;;;;;8.80;5.40;;;;;;;1.67;86.46;100224.84;1671910;83;20926;-59
2021/12/14 02:28:29;;;;;;;10.43;3.97;;;;;;;1.65;86.31;100230.15;1699550;82;21957;-58
2021/12/14 02:30:57;;;;;;;6.60;3.80;;;;;;;1.61;86.22;100230.19;1686222;82;21078;-59
2021/12/14 02:33:29;;;;;;;9.07;3.80;;;;;;;1.58;86.29;100220.90;1701547;82;21456;-56
2021/12/14 02:35:56;;;;;;;7.60;3.83;;;;;;;1.59;86.43;100222.23;1650287;84;22022;-56
2021/12/14 02:38:22;;;;;;;6.30;3.43;;;;;;;1.59;86.33;100216.04;1669941;83;20934;-56
2021/12/14 02:41:01;;;;;;;11.20;4.90;;;;;;;1.60;86.45;100216.03;1670726;83;21376;-56
2021/12/14 02:43:49;;;;;;;12.57;5.57;;;;;;;1.65;86.48;100216.87;1704859;82;20954;-59
2021/12/14 02:46:25;;;;;;;10.73;4.50;;;;;;;1.66;86.41;100217.77;1703915;82;20974;-58
2021/12/14 02:48:55;;;;;;;12.03;4.13;;;;;;;1.66;86.37;100221.30;1704710;82;20955;-60
2021/12/14 02:51:31;;;;;;;9.30;3.80;;;;;;;1.63;86.15;100221.75;1705212;82;20973;-59
2021/12/14 02:54:02;;;;;;;9.57;4.50;;;;;;;1.55;85.94;100224.44;1703252;82;21060;-59
2021/12/14 02:56:32;;;;;;;8.83;3.23;;;;;;;1.49;85.99;100228.45;1702403;82;20911;-58
2021/12/14 02:59:11;;;;;;;10.00;3.97;;;;;;;1.48;86.18;100227.57;1703655;82;20970;-58
2021/12/14 03:01:39;;;;;;;10.17;3.23;;;;;;;1.50;86.30;100229.78;1705547;82;20979;-59
2021/12/14 03:04:07;;;;;;;8.23;4.13;;;;;;;1.54;86.31;100227.98;1687711;82;20974;-59
2021/12/14 03:06:48;;;;;;;5.67;3.13;;;;;;;1.58;86.32;100231.52;1668171;83;21124;-59
2021/12/14 03:09:35;;;;;;;8.67;4.83;;;;;;;1.58;86.21;100230.19;1703819;82;20927;-59
2021/12/14 03:11:48;;;;;;;4.90;3.23;;;;;;;1.55;86.18;100229.75;1703773;81;20915;-56
2021/12/14 03:14:14;;;;;;;8.93;4.30;;;;;;;1.55;86.27;100232.41;1701258;82;20954;-57
2021/12/14 03:16:41;;;;;;;4.57;3.17;;;;;;;1.54;86.25;100235.94;1696267;82;21506;-57
2021/12/14 03:19:08;;;;;;;4.40;3.00;;;;;;;1.51;86.13;100235.53;1670893;83;21452;-59
2021/12/14 03:21:37;;;;;;;4.20;3.00;;;;;;;1.50;86.22;100231.11;1700171;82;20931;-56
2021/12/14 03:24:09;;;;;;;3.30;2.47;;;;;;;1.51;86.25;100230.23;1669306;83;20936;-59
2021/12/14 03:26:39;;;;;;;7.60;2.70;;;;;;;1.51;86.25;100240.84;1667344;83;20910;-58
2021/12/14 03:29:19;;;;;;;3.50;3.20;;;;;;;1.53;86.30;100239.03;1699095;82;21113;-58
2021/12/14 03:31:48;;;;;;;4.03;2.37;;;;;;;1.55;86.24;100234.17;1666797;83;21151;-57
2021/12/14 03:34:24;;;;;;;3.27;2.73;;;;;;;1.55;86.27;100240.80;1667639;83;20942;-58
2021/12/14 03:37:04;;;;;;;4.70;3.27;;;;;;;1.57;86.30;100238.59;1700790;82;21147;-57
2021/12/14 03:39:37;;;;;;;2.93;2.50;;;;;;;1.58;86.25;100238.15;1668950;83;20910;-59
2021/12/14 03:42:18;;;;;;;3.43;3.13;;;;;;;1.56;86.23;100235.94;1651887;84;20951;-56
2021/12/14 03:44:49;;;;;;;4.77;3.57;;;;;;;1.56;86.23;100231.95;1662995;84;21767;-56
2021/12/14 03:47:23;;;;;;;3.73;2.87;;;;;;;1.56;86.16;100231.52;1664240;84;21400;-56
2021/12/14 03:49:57;;;;;;;3.30;2.30;;;;;;;1.57;86.10;100235.05;1664591;84;21563;-57
2021/12/14 03:52:27;;;;;;;;;;;;;;;1.57;86.06;100235.05;1665317;84;21108;-59
2021/12/14 03:54:54;;;;;;;3.13;2.10;;;;;;;1.57;86.18;100237.70;1662318;84;21035;-59
2021/12/14 03:57:21;;;;;;;3.40;2.53;;;;;;;1.61;86.27;100234.17;1637311;84;21217;-57
2021/12/14 03:59:50;;;;;;;3.33;2.27;;;;;;;1.63;86.18;100241.65;1667782;84;20937;-55
2021/12/14 04:02:17;;;;;;;2.90;2.43;;;;;;;1.67;86.18;100240.77;1664601;84;21075;-56
2021/12/14 04:04:52;;;;;;;3.83;2.73;;;;;;;1.67;86.08;100245.62;1663226;84;21543;-58
2021/12/14 04:07:19;;;;;;;4.73;3.17;;;;;;;1.69;86.08;100243.86;1664862;83;21042;-54
2021/12/14 04:09:47;;;;;;;4.73;3.23;;;;;;;1.72;86.05;100249.57;1658814;84;21203;-55
2021/12/14 04:12:16;;;;;;;3.53;3.23;;;;;;;1.72;85.97;100252.23;1662009;84;21137;-55
2021/12/14 04:14:47;;;;;;;4.50;3.43;;;;;;;1.71;85.92;100251.34;1667900;84;21925;-57
2021/12/14 04:17:14;;;;;;;4.43;3.67;;;;;;;1.71;85.83;100254.00;1664170;84;21023;-54
2021/12/14 04:19:41;;;;;;;3.63;2.83;;;;;;;1.72;85.82;100255.77;1668309;84;21039;-55
2021/12/14 04:22:16;;;;;;;4.23;2.83;;;;;;;1.71;85.75;100251.34;1666095;84;21101;-56
2021/12/14 04:24:41;;;;;;;2.93;1.93;;;;;;;1.71;85.76;100248.69;1662821;84;21157;-55
2021/12/14 04:27:11;;;;;;;4.10;3.37;;;;;;;1.73;85.68;100250.02;1663972;84;21093;-54
2021/12/14 04:29:38;;;;;;;4.37;3.70;;;;;;;1.70;85.55;100243.41;1660555;84;21141;-57
2021/12/14 04:32:06;;;;;;;4.30;2.80;;;;;;;;;;1663439;84;21085;-55
2021/12/14 04:34:33;;;;;;;5.13;4.63;;;;;;;1.69;85.62;100250.94;1689719;82;22725;-57
2021/12/14 04:37:01;;;;;;;8.63;4.40;;;;;;;1.69;85.66;100257.13;1701078;82;21090;-57
2021/12/14 04:39:36;;;;;;;6.57;5.10;;;;;;;1.70;85.60;100254.88;1688624;82;21038;-58
2021/12/14 04:53:17;;;;;;;6.27;4.67;;;;;;;1.64;85.55;100264.64;1700434;82;20923;-57
2021/12/14 04:55:45;;;;;;;9.50;5.83;;;;;;;1.63;85.52;100264.20;1703706;80;20982;-54
2021/12/14 04:58:12;;;;;;;13.10;7.37;;;;;;;1.63;85.50;100264.20;1697077;82;21085;-57
2021/12/14 05:00:44;;;;;;;9.77;7.30;;;;;;;1.61;85.45;100267.34;1665515;83;21178;-58
2021/12/14 05:03:26;;;;;;;11.03;7.47;;;;;;;1.61;85.45;100268.66;1697102;82;21125;-56
2021/12/14 05:06:07;;;;;;;11.53;7.43;;;;;;;1.60;85.53;100269.55;1673250;83;20931;-58
2021/12/14 05:11:06;;;;;;;11.67;7.53;;;;;;;1.57;85.48;100277.51;1613259;83;21437;-55
2021/12/14 05:13:40;;;;;;;12.13;7.43;;;;;;;1.55;85.52;100277.51;1703321;82;21085;-58
2021/12/14 05:16:09;;;;;;;10.63;6.27;;;;;;;1.53;85.47;100284.14;1707766;82;21999;-55
2021/12/14 05:18:37;;;;;;;9.07;6.57;;;;;;;1.55;85.52;100283.25;1688223;82;21017;-58
2021/12/14 05:21:03;;;;;;;9.83;6.43;;;;;;;1.56;85.64;100287.23;1665885;83;20978;-55
2021/12/14 05:23:33;;;;;;;9.33;6.53;;;;;;;1.59;85.69;100284.58;1663898;83;21089;-56
2021/12/14 05:26:02;;;;;;;8.47;5.70;;;;;;;1.62;85.69;100287.20;1692589;82;21548;-58
2021/12/14 05:28:29;;;;;;;10.20;6.03;;;;;;;1.64;85.69;100286.76;1695126;82;21347;-56
2021/12/14 05:30:58;;;;;;;12.20;7.63;;;;;;;1.67;85.70;100285.88;1669134;83;20907;-57
2021/12/14 05:33:32;;;;;;;10.10;6.67;;;;;;;1.68;85.69;100288.53;1668053;83;21053;-58
2021/12/14 05:36:04;;;;;;;9.23;6.23;;;;;;;1.69;85.51;100290.74;1702647;82;21561;-59
2021/12/14 05:38:52;;;;;;;12.63;6.80;;;;;;;1.65;85.45;100294.28;1669798;83;21892;-58
2021/12/14 05:44:00;;;;;;;7.27;4.63;;;;;;;1.58;85.33;100289.45;1668745;81;20962;-55
2021/12/14 05:46:29;;;;;;;7.63;5.47;;;;;;;1.55;85.47;100289.89;1700253;81;21555;-58
2021/12/14 05:49:12;;;;;;;9.10;5.07;;;;;;;1.53;85.40;100295.67;1672115;83;21342;-58
2021/12/14 05:51:38;;;;;;;7.30;5.33;;;;;;;1.48;85.55;100294.34;1676646;83;21098;-54
2021/12/14 05:54:05;;;;;;;9.00;5.83;;;;;;;1.50;85.61;100300.53;1706568;81;20903;-58
2021/12/14 05:56:32;;;;;;;10.13;6.93;;;;;;;1.51;85.68;100300.53;1676766;83;20950;-55
2021/12/14 05:58:58;;;;;;;9.87;7.67;;;;;;;;;;1708523;81;20902;-56
2021/12/14 06:01:31;;;;;;;13.20;7.67;;;;;;;1.44;85.56;100305.42;1708228;81;20958;-54
2021/12/14 06:04:02;;;;;;;10.37;8.33;;;;;;;1.42;85.68;100307.19;1700589;81;21475;-55
2021/12/14 06:06:34;;;;;;;10.70;7.63;;;;;;;1.39;85.70;100308.95;1686146;81;20994;-56
2021/12/14 06:09:12;;;;;;;12.93;7.43;;;;;;;1.38;85.74;100309.83;1709377;81;20907;-57
2021/12/14 06:11:40;;;;;;;12.93;7.70;;;;;;;1.35;85.76;100308.53;1708156;81;20954;-56
2021/12/14 06:14:18;;;;;;;11.63;7.33;;;;;;;1.36;85.95;100311.63;1673619;83;21400;-55
2021/12/14 06:16:47;;;;;;;12.63;8.10;;;;;;;1.37;85.89;100307.63;1705308;81;21808;-55
2021/12/14 06:19:26;;;;;;;10.00;7.27;;;;;;;1.38;86.03;100303.20;1675554;83;20989;-55
2021/12/14 06:21:56;;;;;;;10.13;7.57;;;;;;;1.41;86.00;100308.07;1705997;81;21029;-55
2021/12/14 06:24:25;;;;;;;13.77;8.87;;;;;;;1.43;86.02;100304.09;1676137;83;21186;-58
2021/12/14 06:26:54;;;;;;;14.40;8.57;;;;;;;1.43;86.02;100304.98;1704673;81;21069;-57
2021/12/14 06:29:43;;;;;;;10.80;7.77;;;;;;;1.45;85.99;100314.23;1706771;81;23263;-56
2021/12/14 06:32:18;;;;;;;9.60;7.80;;;;;;;1.44;86.04;100314.70;1678769;83;20998;-55
2021/12/14 06:34:49;;;;;;;14.00;7.10;;;;;;;1.43;85.98;100322.22;1714261;81;20941;-58
2021/12/14 06:40:11;;;;;;;12.97;9.17;;;;;;;1.39;85.99;100322.21;1707520;81;21494;-57
2021/12/14 06:42:41;;;;;;;10.83;7.93;;;;;;;1.40;86.00;100327.96;1674147;83;22808;-55
2021/12/14 06:45:19;;;;;;;9.73;6.50;;;;;;;1.36;85.95;100320.44;1710557;81;20851;-58
2021/12/14 06:47:50;;;;;;;8.80;5.40;;;;;;;1.38;86.10;100322.66;1711339;81;21326;-56
2021/12/14 06:50:21;;;;;;;10.20;8.03;;;;;;;1.41;86.07;100320.01;1676285;83;20948;-58
2021/12/14 06:53:03;;;;;;;8.67;6.40;;;;;;;1.43;86.13;100322.66;1677362;83;20890;-59
2021/12/14 06:55:44;;;;;;;10.73;7.80;;;;;;;1.45;86.21;100316.44;1688858;81;22575;-58
2021/12/14 06:58:19;;;;;;;8.93;7.73;;;;;;;1.48;86.19;100319.54;1670904;83;21116;-56
2021/12/14 07:00:50;;;;;;;16.50;11.50;;;;;;;1.50;86.15;100316.45;1673411;83;21056;-58
2021/12/14 07:03:17;;;;;;;23.40;13.03;;;;;;;1.51;86.08;100316.89;1704427;81;21046;-55
2021/12/14 07:05:49;;;;;;;19.90;11.80;;;;;;;1.46;85.90;100322.19;1706011;81;21128;-58
2021/12/14 07:08:24;;;;;;;13.47;9.07;;;;;;;1.41;85.85;100325.75;1688675;81;21880;-55
2021/12/14 07:10:51;;;;;;;11.28;7.58;;;;;;;1.40;85.99;100326.64;1673375;83;28180;-55
2021/12/14 07:13:33;;;;;;;11.93;7.57;;;;;;;1.38;86.04;100322.66;1676318;83;21076;-57
2021/12/14 07:15:57;;;;;;;8.73;6.27;;;;;;;1.40;86.03;100330.61;1707532;81;21079;-54
2021/12/14 07:18:26;;;;;;;14.17;9.37;;;;;;;1.40;86.06;100331.50;1686947;81;21132;-54
2021/12/14 07:20:52;;;;;;;14.43;10.73;;;;;;;1.41;86.06;100331.06;1680412;83;21491;-57
2021/12/14 07:23:34;;;;;;;17.83;12.83;;;;;;;1.42;86.10;100331.50;1707930;81;21729;-57
2021/12/14 07:26:06;;;;;;;20.07;11.73;;;;;;;1.43;86.17;100332.83;1703703;81;21498;-57
2021/12/14 07:28:42;;;;;;;18.53;12.17;;;;;;;1.45;86.17;100336.78;1708605;81;21104;-56
2021/12/14 07:31:22;;;;;;;16.37;10.60;;;;;;;1.43;86.08;100331.95;1709683;81;21061;-54
2021/12/14 07:33:55;;;;;;;14.20;10.33;;;;;;;1.43;86.10;100328.85;1712220;82;21120;-54
2021/12/14 07:36:29;;;;;;;13.33;9.47;;;;;;;1.46;86.13;100326.61;1710944;82;22158;-54
2021/12/14 07:39:05;;;;;;;17.90;9.63;;;;;;;1.48;86.17;100327.06;1707404;81;21094;-57
2021/12/14 07:41:44;;;;;;;15.83;10.67;;;;;;;1.50;86.17;100329.27;1660022;83;21097;-58
2021/12/14 07:44:17;;;;;;;16.20;9.37;;;;;;;1.56;86.21;100329.69;1703452;82;21492;-56
2021/12/14 07:46:48;;;;;;;15.03;9.53;;;;;;;1.64;86.17;100336.30;1668045;83;21795;-59
2021/12/14 07:49:22;;;;;;;15.30;10.60;;;;;;;1.67;86.06;100333.64;1669697;83;21222;-57
2021/12/14 07:51:53;;;;;;;14.43;8.68;;;;;;;1.67;85.88;100332.31;1709611;82;21044;-56
2021/12/14 07:54:25;;;;;;;13.93;10.17;;;;;;;1.67;85.85;100336.30;1663341;83;21053;-58
2021/12/14 07:57:02;;;;;;;16.57;10.00;;;;;;;1.66;85.78;100339.39;1696587;82;21069;-58
2021/12/14 07:59:40;;;;;;;18.80;12.43;;;;;;;1.67;85.74;100338.95;1699328;82;21115;-56
2021/12/14 08:02:20;;;;;;;18.97;11.43;;;;;;;1.63;85.64;100337.17;1695086;82;21321;-59
2021/12/14 08:05:18;;;;;;;17.17;11.13;;;;;;;1.61;85.61;100341.19;1695408;82;21030;-59
2021/12/14 08:07:49;;;;;;;19.53;11.83;;;;;;;1.58;85.67;100335.87;1698233;82;21520;-56
2021/12/14 08:10:24;;;;;;;16.60;10.00;;;;;;;1.61;85.81;100337.21;1701370;82;21895;-57
2021/12/14 08:12:54;;;;;;;17.90;10.30;;;;;;;1.64;85.82;100334.53;1691212;82;21113;-57
2021/12/14 08:15:50;;;;;;;18.00;10.63;;;;;;;1.67;85.80;100331.87;1708687;82;20939;-56
2021/12/14 08:18:29;;;;;;;15.37;10.40;;;;;;;1.70;85.69;100327.02;1703310;82;21061;-57
2021/12/14 08:21:21;;;;;;;15.70;10.90;;;;;;;1.72;85.66;100331.84;1709998;82;21037;-57
2021/12/14 08:24:04;;;;;;;16.83;11.93;;;;;;;1.73;85.74;100325.21;1710235;82;21117;-54
2021/12/14 08:26:42;;;;;;;20.43;12.67;;;;;;;1.78;85.64;100326.54;1695382;82;21188;-56
2021/12/14 08:29:16;;;;;;;21.13;13.77;;;;;;;1.78;85.59;100320.79;1709046;82;21623;-55
2021/12/14 08:31:50;;;;;;;17.25;12.60;;;;;;;1.79;85.51;100324.30;1699176;82;21069;-55
2021/12/14 08:34:31;;;;;;;19.43;12.50;;;;;;;1.80;85.45;100323.41;1687626;82;22335;-58
2021/12/14 08:37:11;;;;;;;17.17;10.60;;;;;;;1.80;85.37;100326.06;1697204;82;20884;-57
2021/12/14 08:39:48;;;;;;;15.83;11.20;;;;;;;1.79;85.39;100323.85;1694776;81;21940;-58
2021/12/14 08:42:32;;;;;;;19.10;11.77;;;;;;;1.82;85.37;100327.83;1715998;81;20940;-55
2021/12/14 08:44:56;;;;;;;19.77;12.13;;;;;;;1.86;85.38;100330.05;1715331;81;20930;-56
2021/12/14 08:47:33;;;;;;;18.10;12.97;;;;;;;1.87;85.24;100330.02;1723263;81;20954;-55
2021/12/14 08:50:03;;;;;;;21.37;13.53;;;;;;;1.89;85.17;100330.89;1719982;81;20961;-55
2021/12/14 08:52:30;;;;;;;22.60;13.67;;;;;;;1.88;85.12;100325.14;1726794;81;21137;-55
2021/12/14 08:54:58;;;;;;;22.20;13.47;;;;;;;1.89;85.15;100330.89;1734502;81;20991;-56
2021/12/14 08:57:26;;;;;;;23.60;15.13;;;;;;;1.90;85.17;100326.47;1724518;81;21376;-57
2021/12/14 08:59:56;;;;;;;20.20;13.83;;;;;;;1.92;85.20;100326.03;1720555;81;20891;-57
2021/12/14 09:02:24;;;;;;;18.93;12.60;;;;;;;1.92;85.16;100326.47;1716861;81;20918;-56
2021/12/14 09:05:07;;;;;;;17.97;11.70;;;;;;;1.92;84.99;100324.70;1713922;81;21767;-55
2021/12/14 09:07:34;;;;;;;13.93;10.43;;;;;;;1.91;84.98;100328.24;1722199;81;20942;-58
2021/12/14 09:10:01;;;;;;;18.00;11.97;;;;;;;1.93;85.05;100327.80;1724436;81;20887;-56
2021/12/14 09:12:34;;;;;;;19.83;12.53;;;;;;;1.96;85.08;100325.11;1731185;81;20930;-55
2021/12/14 09:15:14;;;;;;;20.63;13.23;;;;;;;2.00;85.01;100324.66;1711313;81;21251;-56
2021/12/14 09:17:40;;;;;;;19.00;12.33;;;;;;;2.03;85.02;100324.22;1712859;81;21115;-57
2021/12/14 09:20:12;;;;;;;22.17;14.47;;;;;;;2.05;85.05;100321.53;1707520;81;21004;-58
2021/12/14 09:22:42;;;;;;;20.20;14.17;;;;;;;2.07;84.96;100324.63;1715192;81;20970;-59
2021/12/14 09:25:12;;;;;;;23.43;13.60;;;;;;;2.08;84.88;100325.06;1713387;81;21657;-58
2021/12/14 09:27:38;;;;;;;20.97;14.50;;;;;;;2.08;84.79;100332.14;1712037;81;21440;-58
2021/12/14 09:30:06;;;;;;;22.70;11.73;;;;;;;2.06;84.79;100326.84;1708704;81;21112;-58
2021/12/14 09:32:36;;;;;;;23.40;13.70;;;;;;;2.09;84.78;100328.61;1711258;81;21072;-56
2021/12/14 09:35:03;;;;;;;19.43;11.13;;;;;;;2.08;84.67;100327.72;1708577;81;21798;-59
2021/12/14 09:37:32;;;;;;;18.53;12.00;;;;;;;2.09;84.59;100323.30;1708953;81;22438;-58
2021/12/14 09:40:03;;;;;;;15.67;11.77;;;;;;;2.04;84.46;100315.33;1709982;81;21408;-55
2021/12/14 09:42:32;;;;;;;21.07;13.57;;;;;;;2.05;84.54;100322.41;1715549;81;21118;-56
2021/12/14 09:45:02;;;;;;;21.13;14.13;;;;;;;2.06;84.50;100316.22;1712075;81;21101;-55
2021/12/14 09:47:31;;;;;;;23.03;14.63;;;;;;;2.07;84.48;100314.45;1709710;81;21053;-58
2021/12/14 09:49:59;;;;;;;17.97;12.30;;;;;;;2.08;84.39;100317.55;1708488;81;21127;-54
2021/12/14 09:52:30;;;;;;;19.33;12.67;;;;;;;2.02;84.16;100313.59;1715278;81;21439;-58
2021/12/14 09:54:57;;;;;;;16.30;12.17;;;;;;;1.95;84.23;100315.41;1712784;81;22158;-58
2021/12/14 09:57:28;;;;;;;19.90;12.00;;;;;;;1.94;84.33;100310.98;1709308;81;21380;-54
2021/12/14 09:59:55;;;;;;;25.63;13.30;;;;;;;1.94;84.35;100308.77;1714089;81;21116;-58
2021/12/14 10:02:30;;;;;;;18.60;14.23;;;;;;;1.96;84.46;100303.02;1713376;81;21084;-55
2021/12/14 10:05:01;;;;;;;15.67;11.60;;;;;;;1.98;84.48;100304.75;1712628;81;21069;-53
2021/12/14 10:07:28;;;;;;;19.67;12.73;;;;;;;2.03;84.52;100302.09;1717860;81;21418;-57
2021/12/14 10:09:57;;;;;;;20.27;13.63;;;;;;;2.04;84.37;100306.04;1718024;81;20954;-55
2021/12/14 10:15:12;;;;;;;17.07;12.53;;;;;;;2.03;84.36;100302.98;1720223;81;20883;-57
2021/12/14 10:17:40;;;;;;;16.20;10.80;;;;;;;2.04;84.40;100303.38;1718661;81;21065;-58
2021/12/14 10:20:10;;;;;;;12.63;10.50;;;;;;;2.04;84.38;100301.20;1713325;81;21109;-55
2021/12/14 10:22:37;;;;;;;11.10;8.93;;;;;;;2.02;84.28;100299.00;1709641;81;21074;-54
2021/12/14 10:25:09;;;;;;;9.10;6.77;;;;;;;1.95;84.09;100295.94;1714078;81;21058;-56
2021/12/14 10:27:35;;;;;;;10.30;6.93;;;;;;;1.88;84.11;100295.94;1718301;81;21653;-56
2021/12/14 10:30:09;;;;;;;9.43;6.20;;;;;;;1.87;84.30;100302.14;1714030;81;21124;-56
2021/12/14 10:32:38;;;;;;;7.80;6.17;;;;;;;1.89;84.40;100294.17;1722337;81;21516;-55
2021/12/14 10:35:11;;;;;;;7.53;6.67;;;;;;;1.94;84.51;100294.17;1687432;83;21427;-55
2021/12/14 10:37:57;;;;;;;8.83;6.93;;;;;;;1.96;84.41;100293.25;1667050;84;21061;-55
2021/12/14 10:43:15;;;;;;;7.33;6.00;;;;;;;2.04;84.45;100291.91;1683025;83;21033;-58
2021/12/14 10:45:56;;;;;;;5.67;5.10;;;;;;;2.01;84.26;100283.50;1667496;83;21794;-56
2021/12/14 10:48:27;;;;;;;8.67;7.30;;;;;;;1.99;84.20;100294.57;1669981;83;21120;-56
2021/12/14 10:50:54;;;;;;;7.90;5.60;;;;;;;1.93;84.16;100288.42;1676910;83;21439;-56
2021/12/14 10:53:21;;;;;;;6.07;4.77;;;;;;;1.88;84.22;100289.75;1688532;83;21026;-55
2021/12/14 10:55:53;;;;;;;4.60;4.07;;;;;;;1.84;84.10;100288.02;1666500;83;21288;-56
2021/12/14 10:58:21;;;;;;;4.73;3.73;;;;;;;1.82;84.29;100293.77;1663236;83;21178;-56
2021/12/14 11:01:03;;;;;;;4.53;3.37;;;;;;;1.81;84.33;100292.00;1675771;83;21029;-56
2021/12/14 11:03:35;;;;;;;4.73;3.93;;;;;;;1.84;84.38;100289.34;1643004;84;21638;-56
2021/12/14 11:06:09;;;;;;;5.90;4.33;;;;;;;1.85;84.44;100284.48;1658297;84;21094;-56
2021/12/14 11:09:39;;;;;;;6.00;5.20;;;;;;;1.88;84.43;100289.75;1660804;84;21321;-55
2021/12/14 11:11:55;;;;;;;8.33;6.53;;;;;;;1.88;84.33;100285.33;1655574;84;21395;-56
2021/12/14 11:14:26;;;;;;;8.70;4.47;;;;;;;1.84;84.21;100289.34;1655500;84;21003;-57
2021/12/14 11:19:48;;;;;;;4.67;3.40;;;;;;;1.67;84.18;100281.90;1672682;83;20962;-57
2021/12/14 11:22:22;;;;;;;6.12;4.28;;;;;;;1.63;84.33;100282.34;1672256;83;20990;-58
2021/12/14 11:24:57;;;;;;;6.12;4.47;;;;;;;1.61;84.49;100281.48;1681431;83;21157;-56
2021/12/14 11:27:28;;;;;;;6.28;3.92;;;;;;;1.63;84.57;100286.76;1679620;83;21159;-56
2021/12/14 11:30:18;;;;;;;6.27;3.90;;;;;;;1.66;84.67;100282.78;1658396;84;21074;-56
2021/12/14 11:33:08;;;;;;;6.87;4.83;;;;;;;1.71;84.74;100283.63;1661891;84;20967;-59
2021/12/14 11:35:41;;;;;;;11.80;6.43;;;;;;;1.70;84.60;100282.75;1663402;84;20987;-56
2021/12/14 11:38:12;;;;;;;11.07;6.33;;;;;;;1.70;84.70;100285.41;1657817;84;21140;-55
2021/12/14 11:40:39;;;;;;;9.53;5.93;;;;;;;1.70;84.64;100293.84;1651957;84;21958;-56
2021/12/14 11:43:13;;;;;;;10.43;6.33;;;;;;;1.61;84.45;100289.45;1682235;83;21403;-58
2021/12/14 11:45:41;;;;;;;9.47;6.33;;;;;;;1.56;84.68;100297.84;1683980;83;21709;-56
2021/12/14 11:48:08;;;;;;;11.63;6.50;;;;;;;1.55;84.79;100292.09;1677985;83;20994;-56
2021/12/14 11:50:38;;;;;;;11.57;5.70;;;;;;;1.54;84.83;100289.00;1679889;83;21742;-56
2021/12/14 11:55:54;;;;;;;14.53;8.60;;;;;;;1.57;84.93;100287.68;1853795;76;26628;-55
2021/12/14 11:58:37;;;;;;;14.37;7.37;;;;;;;1.53;85.15;100290.77;1787615;79;21052;-57
2021/12/14 12:01:45;;;;;;;11.70;7.80;;;;;;;1.53;85.08;100292.09;1788619;79;21791;-57
2021/12/14 12:04:20;;;;;;;12.70;6.57;;;;;;;1.53;85.18;100289.45;1790840;78;21766;-58
2021/12/14 12:09:39;;;;;;;15.93;6.87;;;;;;;1.50;85.20;100289.48;1793311;79;20898;-57
2021/12/14 12:12:20;;;;;;;21.17;9.10;;;;;;;1.50;85.19;100293.90;1792652;78;20930;-57
2021/12/14 12:15:09;;;;;;;25.13;12.63;;;;;;;1.51;85.31;100293.02;1786261;77;21088;-58
2021/12/14 12:17:56;;;;;;;17.07;9.43;;;;;;;1.56;85.43;100291.66;1792323;79;20981;-59
2021/12/14 12:20:33;;;;;;;16.57;10.17;;;;;;;1.63;85.52;100294.72;1791025;79;20942;-60
2021/12/14 12:23:07;;;;;;;15.03;9.47;;;;;;;1.65;85.31;100295.16;1795091;79;20898;-57
2021/12/14 12:25:39;;;;;;;20.37;9.30;;;;;;;1.64;85.24;100299.14;1798542;79;21068;-57
2021/12/14 12:28:27;;;;;;;16.37;8.87;;;;;;;1.61;85.18;100302.72;1791861;79;21606;-57
2021/12/14 12:31:11;;;;;;;17.63;8.30;;;;;;;1.59;85.17;100295.64;1807922;79;21370;-56
2021/12/14 12:33:45;;;;;;;10.93;7.23;;;;;;;1.59;85.19;100294.31;1793065;79;22553;-56
2021/12/14 12:36:22;;;;;;;12.83;7.43;;;;;;;1.58;85.27;100284.58;1787319;79;20965;-57